Time;durP1;ratioP1;P1;durP2;ratioP2;P2;SDS_P1;SDS_P2;PMS_P1;PMS_P2;Temp;Humidity;BMP_temperature;BMP_pressure;BME280_temperature;BME280_humidity;BME280_pressure;Samples;Min_cycle;Max_cycle;Signal;HPM_P1;HPM_P2
2022/12/13 00:01:54;;;;;;;9.50;7.75;;;4.90;99.90;;;;;;5057784;28;20046;-74
2022/12/13 00:04:23;;;;;;;10.95;8.55;;;4.90;99.90;;;;;;4990682;28;20417;-72
2022/12/13 00:06:57;;;;;;;10.95;8.25;;;5.00;99.90;;;;;;4990139;28;20420;-75
2022/12/13 00:09:27;;;;;;;12.00;9.00;;;4.80;99.90;;;;;;5057259;28;20054;-75
2022/12/13 00:11:55;;;;;;;10.82;8.40;;;4.80;99.90;;;;;;5040880;28;20054;-71
2022/12/13 00:14:26;;;;;;;10.02;8.07;;;5.00;99.90;;;;;;4989943;28;20042;-70
2022/12/13 00:16:53;;;;;;;10.57;8.77;;;5.00;99.90;;;;;;5057867;28;20058;-72
2022/12/13 00:19:24;;;;;;;11.50;8.77;;;5.00;99.90;;;;;;5057026;28;20042;-71
2022/12/13 00:21:53;;;;;;;;;;;4.90;99.90;;;;;;4989977;28;20039;-70
2022/12/13 00:24:21;;;;;;;10.82;8.48;;;4.80;99.90;;;;;;4989818;28;19975;-70
2022/12/13 00:26:48;;;;;;;11.75;9.00;;;4.80;99.90;;;;;;5056778;28;20444;-73
2022/12/13 00:29:15;;;;;;;10.57;8.60;;;4.70;99.90;;;;;;4990371;28;20039;-73
2022/12/13 00:31:42;;;;;;;9.50;7.70;;;4.90;99.90;;;;;;4989559;28;20111;-73
2022/12/13 00:34:28;;;;;;;13.20;9.52;;;4.90;99.90;;;;;;4989686;28;20046;-72
2022/12/13 00:36:57;;;;;;;12.40;8.50;;;4.80;99.90;;;;;;4989578;28;20149;-73
2022/12/13 00:39:25;;;;;;;11.15;8.80;;;4.60;99.90;;;;;;4989590;28;20442;-71
2022/12/13 00:41:58;;;;;;;10.85;8.55;;;4.50;99.90;;;;;;4989322;28;20034;-71
2022/12/13 00:44:28;;;;;;;12.50;9.70;;;4.30;99.90;;;;;;4990589;28;20065;-70
2022/12/13 00:46:55;;;;;;;11.50;8.98;;;4.40;99.90;;;;;;5061014;28;20046;-75
2022/12/13 00:49:25;;;;;;;11.85;8.98;;;4.50;99.90;;;;;;5045036;28;20117;-69
2022/12/13 00:51:52;;;;;;;14.10;8.43;;;4.60;99.90;;;;;;5060301;28;20142;-70
2022/12/13 00:54:22;;;;;;;11.02;8.93;;;4.50;99.90;;;;;;5044803;28;20061;-75
2022/12/13 00:56:50;;;;;;;14.40;8.52;;;4.50;99.90;;;;;;5060176;28;20175;-70
2022/12/13 00:59:21;;;;;;;14.18;8.88;;;4.50;99.90;;;;;;5043934;28;20383;-71
2022/12/13 01:01:52;;;;;;;11.90;9.20;;;4.40;99.90;;;;;;5044110;28;20051;-71
2022/12/13 01:04:19;;;;;;;10.57;8.65;;;4.50;99.90;;;;;;5044063;28;20096;-71
2022/12/13 01:06:48;;;;;;;11.15;8.98;;;4.40;99.90;;;;;;4992698;28;20049;-70
2022/12/13 01:09:28;;;;;;;10.48;8.57;;;4.30;99.90;;;;;;5000267;28;20110;-73
2022/12/13 01:12:04;;;;;;;12.07;9.20;;;4.40;99.90;;;;;;5063653;28;20046;-73
2022/12/13 01:14:37;;;;;;;12.93;9.23;;;4.50;99.90;;;;;;5077996;28;20046;-72
2022/12/13 01:17:06;;;;;;;12.32;9.20;;;4.50;99.90;;;;;;5063338;28;20133;-72
2022/12/13 01:19:33;;;;;;;10.50;8.90;;;4.30;99.90;;;;;;5079385;28;20061;-69
2022/12/13 01:22:03;;;;;;;12.15;9.40;;;4.30;99.90;;;;;;5012315;28;20382;-71
2022/12/13 01:24:32;;;;;;;12.73;9.13;;;4.40;99.90;;;;;;5079003;28;20447;-70
2022/12/13 01:27:02;;;;;;;13.20;9.45;;;4.40;99.90;;;;;;4975967;28;20416;-73
2022/12/13 01:29:34;;;;;;;12.27;9.05;;;4.50;99.90;;;;;;5059952;28;20474;-70
2022/12/13 01:32:06;;;;;;;13.13;9.57;;;4.30;99.90;;;;;;5043632;28;20058;-70
2022/12/13 01:34:37;;;;;;;13.70;8.73;;;4.20;99.90;;;;;;5059637;28;20043;-69
2022/12/13 01:37:07;;;;;;;12.63;8.90;;;4.40;99.90;;;;;;5044454;28;20050;-74
2022/12/13 01:39:37;;;;;;;12.55;9.07;;;4.30;99.90;;;;;;5059852;28;20045;-74
2022/12/13 01:42:07;;;;;;;13.77;9.33;;;4.40;99.90;;;;;;5064789;28;20068;-72
2022/12/13 01:45:12;;;;;;;12.32;9.00;;;4.40;99.90;;;;;;5064438;28;20288;-72
2022/12/13 01:47:47;;;;;;;13.02;8.95;;;4.40;99.90;;;;;;5064193;28;20129;-73
2022/12/13 01:50:24;;;;;;;12.02;8.85;;;4.30;99.90;;;;;;5063265;28;20054;-72
2022/12/13 01:52:55;;;;;;;13.15;9.32;;;4.40;99.90;;;;;;5080990;28;20046;-73
2022/12/13 01:55:32;;;;;;;14.20;10.40;;;4.40;99.90;;;;;;5064079;28;20042;-69
2022/12/13 01:58:12;;;;;;;13.10;9.52;;;4.40;99.90;;;;;;5063596;28;20069;-71
2022/12/13 02:00:43;;;;;;;15.18;9.95;;;4.30;99.90;;;;;;5100591;23;20052;-70
2022/12/13 02:03:11;;;;;;;13.80;9.80;;;4.40;99.90;;;;;;5097216;28;20084;-69
2022/12/13 02:06:09;;;;;;;14.00;10.02;;;4.50;99.90;;;;;;5096923;28;20053;-70
2022/12/13 02:08:41;;;;;;;12.05;9.45;;;4.40;99.90;;;;;;5080351;28;20036;-72
2022/12/13 02:11:09;;;;;;;12.77;9.27;;;4.30;99.90;;;;;;5096451;28;20062;-68
2022/12/13 02:13:44;;;;;;;13.23;10.20;;;4.30;99.90;;;;;;5079953;28;20036;-68
2022/12/13 02:16:38;;;;;;;12.43;9.77;;;4.30;99.90;;;;;;5096568;28;20119;-71
2022/12/13 02:19:33;;;;;;;10.32;8.68;;;4.30;99.90;;;;;;5096670;28;20046;-72
2022/12/13 02:22:03;;;;;;;10.85;8.75;;;4.30;99.90;;;;;;5079608;28;20483;-71
2022/12/13 02:25:06;;;;;;;14.15;10.10;;;4.30;99.90;;;;;;5079865;28;20048;-70
2022/12/13 02:28:03;;;;;;;14.25;9.82;;;4.10;99.90;;;;;;5057593;28;20044;-75
2022/12/13 02:31:11;;;;;;;13.23;9.43;;;4.20;99.90;;;;;;5113939;28;20035;-74
2022/12/13 02:34:27;;;;;;;11.90;9.68;;;4.30;99.90;;;;;;5096640;28;20052;-69
2022/12/13 02:37:00;;;;;;;11.95;9.93;;;4.20;99.90;;;;;;5066814;22;20050;-73
2022/12/13 02:39:33;;;;;;;14.45;9.93;;;4.20;99.90;;;;;;5059559;28;20036;-74
2022/12/13 02:42:10;;;;;;;14.82;10.40;;;4.20;99.90;;;;;;5075549;28;20052;-69
2022/12/13 02:45:01;;;;;;;16.38;10.32;;;4.20;99.90;;;;;;5075992;28;20044;-74
2022/12/13 02:47:30;;;;;;;14.40;10.88;;;4.00;99.90;;;;;;5093454;28;20097;-70
2022/12/13 02:50:21;;;;;;;13.30;10.15;;;3.90;99.90;;;;;;5061762;28;20376;-70
2022/12/13 02:52:51;;;;;;;14.27;9.88;;;3.90;99.90;;;;;;5059674;28;20048;-73
2022/12/13 02:55:19;;;;;;;14.90;10.73;;;4.00;99.90;;;;;;5075563;28;20438;-71
2022/12/13 02:57:52;;;;;;;13.57;10.07;;;4.00;99.90;;;;;;5060469;28;20044;-71
2022/12/13 03:00:32;;;;;;;14.77;9.85;;;4.00;99.90;;;;;;5075504;28;20047;-70
2022/12/13 03:03:05;;;;;;;12.30;9.47;;;4.10;99.90;;;;;;5075124;28;20093;-70
2022/12/13 03:09:23;;;;;;;12.05;9.65;;;3.80;99.90;;;;;;5092392;28;20047;-69
2022/12/13 03:15:16;;;;;;;13.52;9.75;;;3.90;99.90;;;;;;5075221;28;20480;-70
2022/12/13 03:18:14;;;;;;;12.63;10.07;;;3.90;99.90;;;;;;5057019;28;20054;-74
2022/12/13 03:20:48;;;;;;;12.40;10.10;;;3.90;99.90;;;;;;5092737;28;20422;-71
2022/12/13 03:23:20;;;;;;;15.55;10.57;;;3.90;99.90;;;;;;5075092;28;20138;-71
2022/12/13 03:25:52;;;;;;;16.58;10.82;;;3.80;99.90;;;;;;5058030;28;20491;-74
2022/12/13 03:28:22;;;;;;;16.38;10.02;;;3.80;99.90;;;;;;5075570;28;20383;-70
2022/12/13 03:30:54;;;;;;;13.93;9.93;;;3.90;99.90;;;;;;5074627;28;20079;-72
2022/12/13 03:33:21;;;;;;;19.33;10.77;;;4.00;99.90;;;;;;5092999;28;20434;-71
2022/12/13 03:35:49;;;;;;;14.18;10.20;;;4.00;99.90;;;;;;5074680;28;20052;-73
2022/12/13 03:38:17;;;;;;;13.27;9.70;;;4.00;99.90;;;;;;5092878;28;20093;-72
2022/12/13 03:40:54;;;;;;;15.55;10.35;;;4.10;99.90;;;;;;5092293;28;20040;-68
2022/12/13 03:43:22;;;;;;;13.40;10.10;;;4.10;99.90;;;;;;5075279;28;20044;-69
2022/12/13 03:45:53;;;;;;;14.35;9.88;;;4.10;99.90;;;;;;5058378;28;20047;-74
2022/12/13 03:48:21;;;;;;;12.98;10.13;;;4.10;99.90;;;;;;5092587;28;20123;-73
2022/12/13 03:50:54;;;;;;;18.52;10.60;;;4.00;99.90;;;;;;5092278;28;20399;-69
2022/12/13 03:53:25;;;;;;;15.10;10.07;;;4.00;99.90;;;;;;5075074;28;20032;-70
2022/12/13 03:56:06;;;;;;;16.20;10.95;;;3.90;99.90;;;;;;5074145;28;20126;-68
2022/12/13 03:58:35;;;;;;;15.65;10.63;;;3.80;99.90;;;;;;5058178;28;20059;-70
2022/12/13 04:01:09;;;;;;;14.68;10.05;;;4.00;99.90;;;;;;5074798;28;20093;-69
2022/12/13 04:03:38;;;;;;;15.48;10.48;;;4.00;99.90;;;;;;5074396;28;20060;-72
2022/12/13 04:06:06;;;;;;;13.73;9.95;;;4.00;99.90;;;;;;5075070;28;20036;-69
2022/12/13 04:08:34;;;;;;;14.60;9.82;;;3.90;99.90;;;;;;5054974;28;20059;-73
2022/12/13 04:13:31;;;;;;;14.85;10.10;;;3.90;99.90;;;;;;5038054;28;20375;-73
2022/12/13 04:13:48;;;;;;;14.30;10.27;;;3.80;99.90;;;;;;5072030;28;20041;-70
2022/12/13 04:16:16;;;;;;;14.35;10.93;;;3.80;99.90;;;;;;5098513;23;20055;-71
2022/12/13 04:18:43;;;;;;;14.48;9.75;;;3.80;99.90;;;;;;5078109;28;20105;-73
2022/12/13 04:21:10;;;;;;;15.93;10.45;;;3.70;99.90;;;;;;5112266;28;20043;-71
2022/12/13 04:23:38;;;;;;;12.10;9.57;;;3.80;99.90;;;;;;5077747;28;20055;-69
2022/12/13 04:26:05;;;;;;;15.15;10.50;;;3.80;99.90;;;;;;5026492;22;20049;-71
2022/12/13 04:28:34;;;;;;;12.95;9.50;;;3.80;99.90;;;;;;5012055;28;20049;-70
2022/12/13 04:31:05;;;;;;;13.63;9.57;;;3.90;99.90;;;;;;4995719;28;20038;-69
2022/12/13 04:33:34;;;;;;;14.55;9.70;;;3.80;99.90;;;;;;4995485;28;20102;-73
2022/12/13 04:36:02;;;;;;;12.18;9.25;;;3.60;99.90;;;;;;4995167;28;20091;-70
2022/12/13 04:38:32;;;;;;;14.85;9.73;;;3.60;99.90;;;;;;5011652;28;20056;-69
2022/12/13 04:41:06;;;;;;;15.23;10.32;;;3.60;99.90;;;;;;4995745;28;20045;-71
2022/12/13 04:43:33;;;;;;;14.93;10.20;;;3.60;99.90;;;;;;5011520;28;20128;-73
2022/12/13 04:46:01;;;;;;;13.02;9.65;;;3.70;99.90;;;;;;5011302;28;20309;-73
2022/12/13 04:48:28;;;;;;;12.60;10.30;;;3.60;99.90;;;;;;5012116;28;20144;-74
2022/12/13 04:50:58;;;;;;;14.07;10.45;;;3.60;99.90;;;;;;5028889;28;20045;-71
2022/12/13 04:53:29;;;;;;;13.40;10.48;;;3.50;99.90;;;;;;5097088;28;20485;-72
2022/12/13 04:55:56;;;;;;;14.98;10.07;;;3.50;99.90;;;;;;4995169;28;20056;-70
2022/12/13 04:58:26;;;;;;;14.38;10.00;;;3.50;99.90;;;;;;5069982;22;20044;-70
2022/12/13 05:00:54;;;;;;;13.27;9.45;;;3.40;99.90;;;;;;5057667;28;20138;-74
2022/12/13 05:03:24;;;;;;;17.30;10.55;;;3.40;99.90;;;;;;5074671;28;20040;-75
2022/12/13 05:05:52;;;;;;;13.48;10.38;;;3.40;99.90;;;;;;5057467;28;20079;-70
2022/12/13 05:08:19;;;;;;;11.73;9.27;;;3.50;99.90;;;;;;5073977;28;20066;-73
2022/12/13 05:10:49;;;;;;;15.00;10.70;;;3.60;99.90;;;;;;5073650;28;20547;-69
2022/12/13 05:13:16;;;;;;;13.32;10.63;;;3.60;99.90;;;;;;5057467;28;20079;-72
2022/12/13 05:15:54;;;;;;;13.75;9.70;;;3.50;99.90;;;;;;5057702;28;20466;-68
2022/12/13 05:18:21;;;;;;;15.40;10.30;;;3.30;99.90;;;;;;5092117;28;20048;-70
2022/12/13 05:20:50;;;;;;;13.55;10.07;;;3.50;99.90;;;;;;5091716;28;20040;-69
2022/12/13 05:23:18;;;;;;;13.13;9.95;;;3.30;99.90;;;;;;5073935;28;20059;-72
2022/12/13 05:25:55;;;;;;;14.43;10.10;;;3.30;99.90;;;;;;5073395;28;20486;-70
2022/12/13 05:28:25;;;;;;;13.02;9.50;;;3.30;99.90;;;;;;5073662;28;20097;-70
2022/12/13 05:31:06;;;;;;;11.65;9.35;;;3.30;99.90;;;;;;5057781;28;20052;-70
2022/12/13 05:33:50;;;;;;;13.88;9.82;;;3.30;99.90;;;;;;5063537;28;20040;-71
2022/12/13 05:36:18;;;;;;;14.43;10.02;;;3.40;99.90;;;;;;5060726;28;20380;-69
2022/12/13 05:38:45;;;;;;;15.60;9.98;;;3.20;99.90;;;;;;5056992;28;20102;-71
2022/12/13 05:41:16;;;;;;;13.88;9.77;;;3.30;99.90;;;;;;5074840;28;20040;-71
2022/12/13 05:43:46;;;;;;;15.55;10.23;;;3.20;99.90;;;;;;5073653;28;20510;-69
2022/12/13 05:46:13;;;;;;;12.23;9.80;;;3.10;99.90;;;;;;5040524;28;20060;-74
2022/12/13 05:48:41;;;;;;;12.70;10.15;;;3.20;99.90;;;;;;5074793;28;20476;-69
2022/12/13 05:51:12;;;;;;;15.25;10.38;;;3.30;99.90;;;;;;5074886;28;20048;-73
2022/12/13 05:53:41;;;;;;;63.85;33.55;;;3.30;99.90;;;;;;5074372;28;20048;-69
2022/12/13 05:56:10;;;;;;;95.03;46.38;;;3.30;99.90;;;;;;5074376;28;20476;-71
2022/12/13 05:58:40;;;;;;;97.60;50.50;;;3.40;99.90;;;;;;5071433;28;20052;-68
2022/12/13 06:01:26;;;;;;;71.30;36.20;;;3.70;99.90;;;;;;4972761;28;20410;-69
2022/12/13 06:03:59;;;;;;;79.45;40.95;;;3.70;99.90;;;;;;5029502;28;20467;-68
2022/12/13 06:06:30;;;;;;;81.78;41.08;;;3.60;99.90;;;;;;5055854;28;20434;-67
2022/12/13 06:08:58;;;;;;;19.20;14.50;;;3.50;99.90;;;;;;5056665;28;20059;-67
2022/12/13 06:11:26;;;;;;;15.40;11.23;;;3.50;99.90;;;;;;5073775;28;20072;-72
2022/12/13 06:13:58;;;;;;;12.68;9.60;;;3.40;99.90;;;;;;5041215;28;20048;-67
2022/12/13 06:16:27;;;;;;;16.02;9.95;;;3.30;99.90;;;;;;5040892;28;20381;-68
2022/12/13 06:18:55;;;;;;;13.63;9.60;;;3.20;99.90;;;;;;5072440;28;20048;-70
2022/12/13 06:21:32;;;;;;;14.50;9.45;;;3.20;99.90;;;;;;5056078;28;20036;-72
2022/12/13 06:24:16;;;;;;;13.07;9.73;;;3.20;99.90;;;;;;5055025;28;20607;-67
2022/12/13 06:26:49;;;;;;;13.85;10.13;;;3.20;99.90;;;;;;5073992;23;20395;-67
2022/12/13 06:29:20;;;;;;;15.80;10.40;;;3.30;99.90;;;;;;5051168;23;20438;-68
2022/12/13 06:32:00;;;;;;;14.85;10.50;;;3.30;99.90;;;;;;5027276;28;20067;-69
2022/12/13 06:34:35;;;;;;;14.07;10.02;;;3.20;99.90;;;;;;5040192;28;20419;-70
2022/12/13 06:37:10;;;;;;;15.18;9.93;;;3.30;99.90;;;;;;5026596;28;20048;-68
2022/12/13 06:39:41;;;;;;;15.43;10.13;;;3.10;99.90;;;;;;5023071;28;20036;-68
2022/12/13 06:42:15;;;;;;;16.33;10.95;;;3.20;99.90;;;;;;5006869;28;20041;-69
2022/12/13 06:44:50;;;;;;;15.43;10.15;;;3.20;99.90;;;;;;5034186;28;20048;-68
2022/12/13 06:50:02;;;;;;;15.65;10.02;;;3.10;99.90;;;;;;4992256;28;20129;-70
2022/12/13 06:52:31;;;;;;;14.18;10.10;;;3.10;99.90;;;;;;4961618;28;20070;-71
2022/12/13 06:55:01;;;;;;;15.65;9.82;;;3.10;99.90;;;;;;4977363;28;20046;-74
2022/12/13 06:57:33;;;;;;;15.25;11.18;;;3.10;99.90;;;;;;4977629;28;20046;-74
2022/12/13 07:00:03;;;;;;;13.02;9.98;;;3.20;99.90;;;;;;4977725;28;20066;-69
2022/12/13 07:02:31;;;;;;;14.18;10.02;;;3.20;99.90;;;;;;4994338;28;20050;-73
2022/12/13 07:04:58;;;;;;;14.65;10.45;;;3.20;99.90;;;;;;4994293;28;20072;-72
2022/12/13 07:07:26;;;;;;;14.38;10.18;;;3.20;99.90;;;;;;4992873;28;20482;-67
2022/12/13 07:09:53;;;;;;;13.40;10.18;;;3.20;99.90;;;;;;4992798;28;20137;-69
2022/12/13 07:12:21;;;;;;;14.43;10.43;;;3.20;99.90;;;;;;4975796;28;20050;-74
2022/12/13 07:14:48;;;;;;;15.23;11.40;;;3.20;99.90;;;;;;4948961;28;20087;-73
2022/12/13 07:17:16;;;;;;;14.85;10.00;;;3.20;99.90;;;;;;4991556;28;20038;-76
2022/12/13 07:20:03;;;;;;;17.13;10.93;;;3.20;99.90;;;;;;4979322;28;20049;-73
2022/12/13 07:22:48;;;;;;;14.00;10.02;;;3.20;99.90;;;;;;4989996;28;20074;-71
2022/12/13 07:25:26;;;;;;;48.25;25.67;;;3.10;99.90;;;;;;4976881;28;20031;-70
2022/12/13 07:28:07;;;;;;;16.55;12.35;;;3.60;99.90;;;;;;4990914;28;20104;-72
2022/12/13 07:30:38;;;;;;;16.00;11.80;;;3.30;99.90;;;;;;4988776;28;20117;-70
2022/12/13 07:33:09;;;;;;;16.08;10.95;;;3.30;99.90;;;;;;4992343;28;20057;-69
2022/12/13 07:35:38;;;;;;;16.63;10.93;;;3.30;99.90;;;;;;4975037;28;20049;-69
2022/12/13 07:38:06;;;;;;;21.45;10.60;;;3.30;99.90;;;;;;4982603;28;20402;-72
2022/12/13 07:40:35;;;;;;;16.65;10.65;;;3.30;99.90;;;;;;4997578;28;20441;-71
2022/12/13 07:43:06;;;;;;;15.10;11.00;;;3.20;99.90;;;;;;5000533;28;20449;-72
2022/12/13 07:45:45;;;;;;;17.02;11.68;;;3.20;99.90;;;;;;5001213;28;20037;-73
2022/12/13 07:48:12;;;;;;;15.82;10.27;;;3.30;99.90;;;;;;5000058;28;20049;-74
2022/12/13 07:50:42;;;;;;;15.70;10.45;;;3.30;99.90;;;;;;5001729;28;20109;-72
2022/12/13 07:53:23;;;;;;;18.85;10.98;;;3.20;99.90;;;;;;4972035;28;20042;-73
2022/12/13 07:55:52;;;;;;;15.77;10.63;;;3.30;99.90;;;;;;4999806;28;20561;-68
2022/12/13 07:58:19;;;;;;;14.57;11.18;;;3.30;99.90;;;;;;5002709;28;20050;-70
2022/12/13 08:00:49;;;;;;;15.90;10.95;;;3.40;99.90;;;;;;4986185;28;20519;-70
2022/12/13 08:03:16;;;;;;;16.50;9.98;;;3.30;99.90;;;;;;4987510;28;20042;-70
2022/12/13 08:06:01;;;;;;;15.90;11.10;;;3.30;99.90;;;;;;5002287;28;20329;-68
2022/12/13 08:08:30;;;;;;;16.48;11.10;;;3.40;99.90;;;;;;4982546;28;20041;-69
2022/12/13 08:11:06;;;;;;;14.73;10.48;;;3.40;99.90;;;;;;5001146;28;20069;-72
2022/12/13 08:13:39;;;;;;;15.20;10.38;;;3.60;99.90;;;;;;5001621;28;20042;-70
2022/12/13 08:16:09;;;;;;;16.55;11.55;;;3.30;99.90;;;;;;4999989;28;20038;-68
2022/12/13 08:19:04;;;;;;;20.77;11.30;;;3.40;99.90;;;;;;4985056;28;20045;-69
2022/12/13 08:21:51;;;;;;;16.30;11.05;;;3.50;99.90;;;;;;4967636;28;20054;-70
2022/12/13 08:24:23;;;;;;;18.45;12.30;;;3.50;99.90;;;;;;4982600;28;20458;-71
2022/12/13 08:26:52;;;;;;;16.05;10.73;;;3.60;99.90;;;;;;5001168;28;20045;-70
2022/12/13 08:29:20;;;;;;;18.35;11.23;;;3.70;99.90;;;;;;4964841;28;20061;-68
2022/12/13 08:32:05;;;;;;;19.10;11.10;;;3.60;99.90;;;;;;4982432;28;20041;-69
2022/12/13 08:34:32;;;;;;;16.58;11.25;;;4.00;99.90;;;;;;4983316;28;20421;-69
2022/12/13 08:37:05;;;;;;;16.80;11.38;;;4.20;99.90;;;;;;4998165;28;20065;-67
2022/12/13 08:39:35;;;;;;;20.40;11.93;;;4.20;99.90;;;;;;5000426;28;20116;-69
2022/12/13 08:42:09;;;;;;;17.10;11.68;;;4.00;99.90;;;;;;5001119;28;20066;-69
2022/12/13 08:44:52;;;;;;;17.40;11.98;;;3.90;99.90;;;;;;5000406;28;20039;-68
2022/12/13 08:47:21;;;;;;;;;;;3.80;99.90;;;;;;4998177;28;20073;-70
2022/12/13 08:49:57;;;;;;;20.42;12.13;;;4.20;99.90;;;;;;5000734;28;20363;-70
2022/12/13 08:52:32;;;;;;;17.75;12.80;;;4.40;99.90;;;;;;4999418;28;20148;-71
2022/12/13 08:55:12;;;;;;;19.35;12.30;;;4.40;99.90;;;;;;4981803;28;20527;-69
2022/12/13 08:57:41;;;;;;;16.77;12.57;;;4.70;99.90;;;;;;4997571;28;20034;-68
2022/12/13 09:00:12;;;;;;;17.92;11.55;;;4.60;99.90;;;;;;5011315;28;20075;-72
2022/12/13 09:02:40;;;;;;;21.65;12.68;;;4.60;99.90;;;;;;4992686;28;20488;-72
2022/12/13 09:05:13;;;;;;;19.17;11.70;;;4.50;99.90;;;;;;4975474;28;20104;-71
2022/12/13 09:08:02;;;;;;;25.17;12.98;;;4.60;99.90;;;;;;4964895;28;20499;-71
2022/12/13 09:11:00;;;;;;;24.60;13.02;;;5.10;99.90;;;;;;4978947;28;20046;-69
2022/12/13 09:13:38;;;;;;;26.02;12.85;;;5.30;99.90;;;;;;4996275;28;20451;-69
2022/12/13 09:16:24;;;;;;;26.23;13.25;;;5.70;99.90;;;;;;4995844;28;20050;-69
2022/12/13 09:18:52;;;;;;;28.75;13.15;;;6.10;99.90;;;;;;4979198;28;20113;-70
2022/12/13 09:21:22;;;;;;;24.65;13.55;;;6.20;99.90;;;;;;4995836;28;20038;-70
2022/12/13 09:23:59;;;;;;;30.95;14.65;;;6.00;99.90;;;;;;4979711;28;20402;-70
2022/12/13 09:26:38;;;;;;;;;;;5.80;99.90;;;;;;4979631;28;20507;-73
2022/12/13 09:29:17;;;;;;;28.58;14.35;;;5.70;99.90;;;;;;4980208;28;19921;-73
2022/12/13 09:32:01;;;;;;;25.02;14.20;;;5.50;99.90;;;;;;4965656;28;20477;-70
2022/12/13 09:34:28;;;;;;;22.15;14.32;;;5.50;99.90;;;;;;4996412;28;20485;-68
2022/12/13 09:37:06;;;;;;;19.02;12.70;;;5.70;99.90;;;;;;4994943;28;20042;-70
2022/12/13 09:39:33;;;;;;;23.92;13.30;;;5.60;99.90;;;;;;4997622;28;20062;-72
2022/12/13 09:42:02;;;;;;;19.88;12.40;;;5.80;99.90;;;;;;4967676;28;20387;-70
2022/12/13 09:44:44;;;;;;;22.55;13.27;;;6.00;99.90;;;;;;4963788;28;20050;-72
2022/12/13 09:47:41;;;;;;;22.52;12.63;;;6.00;99.90;;;;;;4963333;28;20057;-68
2022/12/13 09:50:26;;;;;;;17.33;11.85;;;6.00;99.90;;;;;;4995882;28;20080;-71
2022/12/13 09:52:57;;;;;;;21.85;13.07;;;6.10;99.90;;;;;;4994832;28;20046;-69
2022/12/13 09:55:41;;;;;;;23.17;13.38;;;6.20;99.90;;;;;;4979027;28;20042;-72
2022/12/13 09:58:24;;;;;;;19.45;12.63;;;5.90;99.90;;;;;;4996123;28;20065;-76
2022/12/13 10:01:10;;;;;;;20.05;12.93;;;5.40;99.90;;;;;;4978293;28;20046;-70
2022/12/13 10:03:42;;;;;;;27.73;14.75;;;5.00;99.90;;;;;;4963232;28;20387;-72
2022/12/13 10:06:15;;;;;;;23.25;14.00;;;5.30;99.90;;;;;;4963346;28;20057;-69
2022/12/13 10:08:55;;;;;;;19.35;12.25;;;5.70;99.90;;;;;;4978551;28;20081;-73
2022/12/13 10:11:30;;;;;;;21.90;13.45;;;5.40;99.90;;;;;;4978117;28;20189;-71
2022/12/13 10:14:01;;;;;;;22.17;13.32;;;5.40;99.90;;;;;;4994690;28;20438;-69
2022/12/13 10:16:35;;;;;;;30.48;14.77;;;5.10;99.90;;;;;;4993536;28;20077;-69
2022/12/13 10:19:20;;;;;;;25.52;14.90;;;5.30;99.90;;;;;;4977797;28;20117;-73
2022/12/13 10:21:57;;;;;;;20.48;13.68;;;5.80;99.90;;;;;;4977155;28;20073;-69
2022/12/13 10:24:46;;;;;;;20.85;13.73;;;5.60;99.90;;;;;;4977775;28;20403;-74
2022/12/13 10:27:20;;;;;;;24.13;14.80;;;5.80;99.90;;;;;;4994830;28;20065;-70
2022/12/13 10:30:01;;;;;;;27.40;14.68;;;5.40;99.90;;;;;;4977045;28;20045;-71
2022/12/13 10:32:32;;;;;;;28.00;13.65;;;5.50;99.90;;;;;;4993532;28;20402;-71
2022/12/13 10:35:39;;;;;;;24.73;13.90;;;5.60;99.90;;;;;;4977765;28;20049;-69
2022/12/13 10:38:07;;;;;;;25.50;14.13;;;5.90;99.90;;;;;;4934538;29;20135;-73
2022/12/13 10:40:36;;;;;;;28.63;15.27;;;6.00;99.90;;;;;;4965944;28;20158;-69
2022/12/13 10:43:20;;;;;;;25.38;14.35;;;5.80;99.90;;;;;;4957884;28;20146;-68
2022/12/13 10:45:57;;;;;;;24.33;14.32;;;5.60;99.90;;;;;;4973474;28;20436;-69
2022/12/13 10:48:38;;;;;;;24.30;13.85;;;5.50;99.90;;;;;;4957533;28;20158;-71
2022/12/13 10:51:09;;;;;;;27.10;16.20;;;6.00;99.90;;;;;;4975422;28;20053;-73
2022/12/13 10:53:57;;;;;;;26.17;14.45;;;6.40;99.90;;;;;;4975328;28;20049;-74
2022/12/13 10:56:42;;;;;;;32.55;15.63;;;7.00;99.90;;;;;;4957599;28;20046;-68
2022/12/13 10:59:31;;;;;;;27.48;15.60;;;7.90;99.90;;;;;;4957627;28;20450;-69
2022/12/13 11:02:22;;;;;;;25.67;15.45;;;7.90;99.80;;;;;;4978394;28;20443;-68
2022/12/13 11:04:53;;;;;;;27.63;15.15;;;8.00;99.90;;;;;;4977923;28;20085;-73
2022/12/13 11:07:23;;;;;;;27.00;15.35;;;8.40;97.90;;;;;;4985367;28;20045;-69
2022/12/13 11:09:51;;;;;;;28.05;15.40;;;8.60;97.40;;;;;;4984946;28;20145;-74
2022/12/13 11:12:26;;;;;;;28.10;15.40;;;8.40;96.80;;;;;;5002874;28;20042;-69
2022/12/13 11:14:55;;;;;;;26.50;14.93;;;8.00;96.80;;;;;;5000938;28;20434;-68
2022/12/13 11:17:25;;;;;;;22.83;14.13;;;7.40;98.60;;;;;;4984781;28;20050;-70
2022/12/13 11:19:59;;;;;;;25.98;15.38;;;7.10;98.90;;;;;;5002459;28;20098;-70
2022/12/13 11:22:31;;;;;;;21.88;14.15;;;7.30;99.40;;;;;;4984505;28;20049;-68
2022/12/13 11:25:01;;;;;;;24.63;13.20;;;7.40;98.50;;;;;;4976738;28;20046;-69
2022/12/13 11:27:50;;;;;;;22.38;13.70;;;7.00;99.50;;;;;;4960730;28;20399;-68
2022/12/13 11:30:21;;;;;;;24.35;13.98;;;7.00;99.60;;;;;;4976239;28;20101;-70
2022/12/13 11:33:20;;;;;;;26.40;13.45;;;6.60;99.90;;;;;;4993723;28;20114;-69
2022/12/13 11:36:21;;;;;;;24.00;13.27;;;6.60;99.90;;;;;;4976842;28;20055;-76
2022/12/13 11:39:07;;;;;;;;;;;6.10;99.90;;;;;;4994481;28;20394;-67
2022/12/13 11:41:41;;;;;;;18.70;11.90;;;6.10;99.90;;;;;;4993591;28;20278;-67
2022/12/13 11:44:25;;;;;;;21.73;13.32;;;6.00;99.90;;;;;;4976176;28;20529;-70
2022/12/13 11:46:58;;;;;;;22.42;12.80;;;5.90;99.90;;;;;;4991928;28;20049;-76
2022/12/13 11:49:44;;;;;;;19.05;12.23;;;6.00;99.90;;;;;;4993612;28;20054;-75
2022/12/13 11:52:24;;;;;;;21.63;13.40;;;5.60;99.90;;;;;;4976193;28;20064;-71
2022/12/13 11:54:58;;;;;;;21.08;12.95;;;5.60;99.90;;;;;;4993665;28;20061;-68
2022/12/13 11:57:44;;;;;;;18.60;11.88;;;5.80;99.90;;;;;;4975503;28;20058;-68
2022/12/13 12:00:38;;;;;;;16.27;10.57;;;6.10;99.90;;;;;;4975253;28;20050;-70
2022/12/13 12:03:11;;;;;;;17.50;11.40;;;6.30;99.90;;;;;;4992298;28;20121;-70
2022/12/13 12:05:50;;;;;;;18.45;13.05;;;6.40;99.90;;;;;;4975985;28;20054;-70
2022/12/13 12:08:32;;;;;;;25.13;14.57;;;6.60;99.90;;;;;;4979915;28;20054;-75
2022/12/13 12:11:26;;;;;;;18.27;13.10;;;6.50;99.90;;;;;;4995257;28;20065;-70
2022/12/13 12:14:16;;;;;;;16.30;10.77;;;6.20;99.90;;;;;;4982386;28;20145;-69
2022/12/13 12:16:52;;;;;;;19.55;12.77;;;6.60;99.90;;;;;;5011858;28;20065;-70
2022/12/13 12:19:22;;;;;;;19.90;13.63;;;6.90;99.90;;;;;;4995493;28;20405;-73
2022/12/13 12:21:56;;;;;;;17.08;13.07;;;7.10;99.90;;;;;;4995339;28;20052;-69
2022/12/13 12:25:02;;;;;;;18.38;12.32;;;7.30;99.90;;;;;;4995824;28;20052;-72
2022/12/13 12:27:56;;;;;;;17.13;11.20;;;7.40;99.40;;;;;;5013282;28;20048;-69
2022/12/13 12:30:43;;;;;;;16.75;11.13;;;7.60;98.40;;;;;;4992460;28;20494;-68
2022/12/13 12:33:29;;;;;;;20.75;10.93;;;7.60;98.00;;;;;;5013756;28;20034;-68
2022/12/13 12:36:18;;;;;;;23.38;13.07;;;7.80;98.00;;;;;;4995577;28;20060;-76
2022/12/13 12:39:01;;;;;;;19.45;11.65;;;7.80;98.50;;;;;;5011860;28;20041;-70
2022/12/13 12:42:01;;;;;;;18.30;11.60;;;7.70;98.00;;;;;;4997175;28;20396;-68
2022/12/13 12:44:44;;;;;;;16.10;11.43;;;7.10;97.20;;;;;;5016727;28;20448;-70
2022/12/13 12:47:21;;;;;;;16.38;10.32;;;6.60;99.60;;;;;;5015528;28;20123;-68
2022/12/13 12:50:15;;;;;;;17.45;10.85;;;6.90;98.40;;;;;;4999036;28;20070;-71
2022/12/13 12:53:06;;;;;;;14.88;10.80;;;7.00;98.70;;;;;;5016110;28;20050;-68
2022/12/13 12:56:16;;;;;;;16.85;11.07;;;6.90;98.60;;;;;;4998549;28;20042;-69
2022/12/13 12:59:07;;;;;;;18.40;11.50;;;6.90;98.70;;;;;;4998648;28;20453;-69
2022/12/13 13:01:40;;;;;;;20.17;11.50;;;7.10;99.50;;;;;;5015488;28;20042;-72
2022/12/13 13:04:12;;;;;;;15.27;10.68;;;7.30;99.30;;;;;;5016294;28;20433;-68
2022/12/13 13:07:06;;;;;;;16.05;10.68;;;7.40;98.80;;;;;;5015937;28;20084;-69
2022/12/13 13:09:53;;;;;;;17.67;11.30;;;7.40;98.10;;;;;;5000512;28;20057;-71
2022/12/13 13:12:24;;;;;;;17.05;10.90;;;7.30;98.40;;;;;;4999062;28;20045;-67
2022/12/13 13:15:32;;;;;;;15.85;11.02;;;7.30;98.20;;;;;;5014843;28;20057;-69
2022/12/13 13:18:37;;;;;;;17.00;10.23;;;7.30;97.90;;;;;;4982156;28;20088;-71
2022/12/13 13:21:24;;;;;;;16.60;10.77;;;7.20;97.80;;;;;;4982591;28;20045;-68
2022/12/13 13:24:00;;;;;;;17.17;10.77;;;7.20;97.90;;;;;;4998531;28;20441;-72
2022/12/13 13:26:29;;;;;;;15.35;10.82;;;7.20;98.10;;;;;;5014446;28;20050;-70
2022/12/13 13:29:22;;;;;;;17.63;11.57;;;7.20;97.80;;;;;;5015684;28;20034;-72
2022/12/13 13:32:00;;;;;;;20.40;11.90;;;7.30;97.60;;;;;;5004909;28;20454;-71
2022/12/13 13:34:34;;;;;;;16.73;11.40;;;7.30;98.00;;;;;;4998552;28;20145;-74